• Join FlightAware (Why Join?)
  • Login
  • US Flag 
03:25AM EDT


 

Airport Tracker/Info


-or-


 

Live Flight TrackerFlight Track Log ✈ N935SS ✈ 22-Apr-2013 ✈ KHPN - KSUA

Flight Track Log - Related Links

Times and Time Zones

All times are in EDT time to prevent confusion due to time zone crossing. See the N935SS flight status page for this flight to view local times or setup timezone preferences in your user account.

Time Position Orientation Groundspeed Altitude Reporting Facility
EDT Latitude Longitude Course Direction KTS MPH feet Rate Location/Type
03:18PM 41.0333 -73.7000 270° West 188 216 2,400  Level New York TRACON
03:19PM 41.0333 -73.7667 270° West 225 259 3,700 1,980 Climbing New York TRACON
03:20PM 41.0500 -73.8500 285° West 248 285 6,400 1,620 Climbing New York TRACON
03:21PM 40.9833 -73.9000 210° Southwest 268 308 7,000 1,380 Climbing New York TRACON
03:22PM 40.9167 -73.9500 210° Southwest 270 311 9,300 2,040 Climbing New York TRACON
03:23PM 40.8333 -73.9833 197° South 302 348 11,400 1,320 Climbing New York TRACON
03:24PM 40.7667 -74.0333 210° Southwest 335 386 12,000 300 Climbing New York TRACON
03:25PM 40.6833 -74.0667 197° South 331 381 12,000 780 Level New York TRACON
03:26PM 40.5833 -74.1000 194° South 326 375 13,600 1,680 Climbing New York TRACON
03:27PM 40.5000 -74.1167 189° South 333 383 15,600 1,080 Climbing New York TRACON
03:29PM 40.3042 -74.1756 193° South 356 410 17,000 420 Climbing New York Center
03:30PM 40.2097 -74.2008 192° South 350 403 17,000 300 Level New York Center
03:31PM 40.1172 -74.2233 191° South 350 403 17,700 780 Climbing New York Center
03:32PM 40.0725 -74.2333 190° South 349 402 18,200 2,040 Climbing Washington Center
03:33PM 39.9792 -74.2783 200° South 343 395 20,700 2,520 Climbing Washington Center
03:34PM 39.8989 -74.3528 215° Southwest 348 400 23,300 1,800 Climbing Washington Center
03:35PM 39.8203 -74.4300 217° Southwest 354 407 24,300 1,260 Climbing Washington Center
03:36PM 39.7525 -74.5200 226° Southwest 359 413 25,900 1,140 Climbing Washington Center
03:37PM 39.6886 -74.6044 225° Southwest 345 397 26,600 1,140 Climbing Washington Center
03:38PM 39.6308 -74.6808 226° Southwest 339 390 28,200 1,560 Climbing Washington Center
03:39PM 39.5669 -74.7625 225° Southwest 328 377 29,800 1,380 Climbing Washington Center
03:40PM 39.5028 -74.8492 226° Southwest 328 377 31,000 1,200 Climbing Washington Center
03:41PM 39.4431 -74.9411 230° Southwest 334 384 32,300 1,200 Climbing Washington Center
03:42PM 39.3933 -75.0464 239° Southwest 340 391 33,500 1,200 Climbing Washington Center
03:43PM 39.3461 -75.1542 240° Southwest 340 391 34,700 1,200 Climbing Washington Center
03:44PM 39.2839 -75.2431 228° Southwest 346 398 35,900 1,200 Climbing Washington Center
03:45PM 39.2025 -75.2917 205° Southwest 324 373 37,100 1,200 Climbing Washington Center
03:46PM 39.1214 -75.3456 207° Southwest 324 373 38,300 1,020 Climbing Washington Center
03:47PM 39.0361 -75.3939 204° Southwest 329 379 39,200 720 Climbing Washington Center
03:48PM 38.9550 -75.4447 206° Southwest 329 379 39,800 360 Climbing Washington Center
03:49PM 38.8653 -75.5008 206° Southwest 345 397 40,000 60 Climbing Washington Center
03:50PM 38.7758 -75.5569 206° Southwest 356 410 40,000  Level Washington Center
03:51PM 38.6797 -75.6183 207° Southwest 369 425 40,000  Level Washington Center
03:52PM 38.5817 -75.6767 205° Southwest 380 437 40,000  Level Washington Center
03:53PM 38.4878 -75.7350 206° Southwest 380 437 40,000  Level Washington Center
03:54PM 38.3919 -75.7931 205° Southwest 380 437 40,000  Level Washington Center
03:55PM 38.2958 -75.8483 204° Southwest 380 437 40,000  Level Washington Center
03:56PM 38.2019 -75.9061 206° Southwest 380 437 40,000  Level Washington Center
03:57PM 38.1039 -75.9611 204° Southwest 380 437 40,100 480 Climbing Washington Center
03:58PM 38.0119 -76.0214 207° Southwest 380 437 41,000 780 Climbing Washington Center
03:59PM 37.9197 -76.0761 205° Southwest 380 437 41,700 720 Climbing Washington Center
04:00PM 37.8258 -76.1308 205° Southwest 380 437 42,500 600 Climbing Washington Center
04:01PM 37.7336 -76.1878 206° Southwest 380 437 43,000 240 Climbing Washington Center
04:02PM 37.6397 -76.2447 206° Southwest 380 437 43,000  Level Washington Center
04:03PM 37.5308 -76.3094 205° Southwest 380 437 43,000  Level Washington Center
04:04PM 37.4428 -76.3608 205° Southwest 385 443 43,000  Level Washington Center
04:05PM 37.3422 -76.4172 204° Southwest 385 443 43,000  Level Washington Center
04:06PM 37.2417 -76.4789 206° Southwest 385 443 43,000  Level Washington Center
04:07PM 37.1411 -76.5403 206° Southwest 390 449 43,000  Level Washington Center
04:08PM 37.0406 -76.5989 205° Southwest 395 455 43,000  Level Washington Center
04:09PM 36.9400 -76.6600 206° Southwest 400 460 43,000  Level Washington Center
04:10PM 36.8392 -76.7156 204° Southwest 405 466 43,000  Level Washington Center
04:11PM 36.7386 -76.7764 206° Southwest 405 466 43,000  Level Washington Center
04:12PM 36.6378 -76.8344 205° Southwest 399 459 43,000  Level Washington Center
04:13PM 36.5392 -76.8922 205° Southwest 399 459 43,000  Level Washington Center
04:14PM 36.4278 -76.9575 205° Southwest 404 465 43,000  Level Washington Center
04:15PM 36.3269 -77.0150 205° Southwest 404 465 43,000  Level Washington Center
04:16PM 36.2283 -77.0725 205° Southwest 404 465 43,000  Level Washington Center
04:17PM 36.1253 -77.1297 204° Southwest 404 465 43,000  Level Washington Center
04:18PM 36.0392 -77.1819 206° Southwest 398 458 43,000  Level Washington Center
04:19PM 35.9381 -77.2389 205° Southwest 398 458 43,000  Level Washington Center
04:20PM 35.8331 -77.2983 205° Southwest 403 464 43,000  Level Washington Center
04:21PM 35.7319 -77.3550 204° Southwest 403 464 43,000  Level Washington Center
04:22PM 35.6289 -77.4142 205° Southwest 403 464 43,000  Level Washington Center
04:23PM 35.5258 -77.4703 204° Southwest 403 464 43,000  Level Washington Center
04:24PM 35.4206 -77.5292 205° Southwest 403 464 43,000  Level Washington Center
04:25PM 35.3256 -77.6006 212° Southwest 403 464 43,000  Level Washington Center
04:26PM 35.2383 -77.6925 221° Southwest 408 470 43,000  Level Washington Center
04:27PM 35.1556 -77.7794 221° Southwest 408 470 43,000  Level Washington Center
04:28PM 35.0703 -77.8683 220° Southwest 408 470 43,000  Level Washington Center
04:29PM 34.9831 -77.9547 219° Southwest 408 470 43,000  Level Washington Center
04:30PM 34.9000 -78.0433 221° Southwest 413 475 43,000  Level Washington Center
04:31PM 34.8081 -78.1444 222° Southwest 413 475 43,000  Level Washington Center
04:32PM 34.7228 -78.2325 220° Southwest 408 470 43,000  Level Washington Center
04:33PM 34.6372 -78.3233 221° Southwest 408 470 43,000  Level Washington Center
04:34PM 34.5553 -78.4003 218° Southwest 412 474 43,000  Level Jacksonville Center
04:35PM 34.4689 -78.4878 220° Southwest 412 474 43,000  Level Jacksonville Center
04:36PM 34.3842 -78.5753 220° Southwest 412 474 43,000  Level Jacksonville Center
04:37PM 34.2994 -78.6625 220° Southwest 412 474 43,000  Level Jacksonville Center
04:38PM 34.2128 -78.7469 219° Southwest 412 474 43,000  Level Jacksonville Center
04:39PM 34.1258 -78.8339 220° Southwest 412 474 43,000  Level Jacksonville Center
04:40PM 34.0344 -78.9158 217° Southwest 417 480 43,000  Level Jacksonville Center
04:41PM 33.9431 -78.9925 215° Southwest 412 474 43,000  Level Jacksonville Center
04:42PM 33.8517 -79.0742 217° Southwest 407 468 43,000  Level Jacksonville Center
04:43PM 33.7581 -79.1506 214° Southwest 412 474 43,000  Level Jacksonville Center
04:44PM 33.6603 -79.2344 216° Southwest 413 475 43,000  Level Jacksonville Center
04:45PM 33.5667 -79.3158 216° Southwest 413 475 43,000  Level Jacksonville Center
04:46PM 33.4747 -79.3917 215° Southwest 418 481 43,000  Level Jacksonville Center
04:47PM 33.3831 -79.4722 216° Southwest 418 481 43,000  Level Jacksonville Center
04:48PM 33.2892 -79.5506 215° Southwest 418 481 43,000  Level Jacksonville Center
04:49PM 33.1953 -79.6308 216° Southwest 418 481 43,000  Level Jacksonville Center
04:50PM 33.1033 -79.7086 215° Southwest 418 481 43,000  Level Jacksonville Center
04:51PM 33.0094 -79.7864 215° Southwest 418 481 43,000  Level Jacksonville Center
04:52PM 32.9153 -79.8639 215° Southwest 418 481 43,000  Level Jacksonville Center
04:53PM 32.8314 -79.9358 216° Southwest 418 481 43,000  Level Jacksonville Center
04:54PM 32.7372 -80.0131 215° Southwest 418 481 43,000  Level Jacksonville Center
04:55PM 32.6428 -80.0950 216° Southwest 418 481 43,000  Level Jacksonville Center
04:56PM 32.5506 -80.1717 215° Southwest 418 481 43,000  Level Jacksonville Center
04:57PM 32.4583 -80.2483 215° Southwest 418 481 43,000  Level Jacksonville Center
04:58PM 32.3661 -80.3272 216° Southwest 418 481 43,000  Level Jacksonville Center
04:59PM 32.2717 -80.4061 215° Southwest 418 481 43,000  Level Jacksonville Center
05:00PM 32.1792 -80.4822 215° Southwest 418 481 43,000  Level Jacksonville Center
05:01PM 32.0908 -80.5556 215° Southwest 403 464 43,000  Level Jacksonville Center
05:02PM 31.9858 -80.6417 215° Southwest 408 470 43,000  Level Jacksonville Center
05:03PM 31.8803 -80.7006 205° Southwest 413 475 43,000  Level Jacksonville Center
05:04PM 31.7808 -80.7347 196° South 421 484 43,000  Level Jacksonville Center
05:05PM 31.6561 -80.7814 198° South 426 490 43,000  Level Jacksonville Center
05:06PM 31.5567 -80.8178 197° South 426 490 43,000  Level Jacksonville Center
05:07PM 31.4300 -80.8619 197° South 426 490 43,000  Level Jacksonville Center
05:08PM 31.3181 -80.9058 199° South 426 490 43,000  Level Jacksonville Center
05:09PM 31.2039 -80.9494 198° South 420 483 43,000 -720 Level Jacksonville Center
05:10PM 31.0917 -80.9906 197° South 426 490 41,600 -1,740 Descending Jacksonville Center
05:11PM 30.9733 -81.0342 198° South 437 503 39,600 -1,980 Descending Jacksonville Center
05:12PM 30.8569 -81.0728 196° South 437 503 37,700 -1,980 Descending Jacksonville Center
05:13PM 30.7406 -81.1161 198° South 437 503 35,700 -1,860 Descending Jacksonville Center
05:14PM 30.6222 -81.1522 195° South 437 503 34,000 -900 Descending Jacksonville Center
05:15PM 30.4969 -81.1519 180° South 437 503 34,000  Level Jacksonville Center
05:16PM 30.3694 -81.1447 177° South 448 516 34,000  Level Jacksonville Center
05:17PM 30.2419 -81.1422 179° South 460 529 34,000 -60 Level Jacksonville Center
05:18PM 30.1125 -81.1372 178° South 460 529 33,900 -1,080 Descending Jacksonville Center
05:19PM 29.9850 -81.1325 178° South 460 529 31,900 -2,340 Descending Jacksonville Center
05:20PM 29.8578 -81.1300 179° South 460 529 29,300 -2,640 Descending Jacksonville Center
05:21PM 29.7325 -81.1275 179° South 455 524 26,700 -2,580 Descending Jacksonville Center
05:22PM 29.6072 -81.1250 179° South 455 524 24,200 -2,460 Descending Jacksonville Center
05:23PM 29.4903 -81.1222 179° South 450 518 21,800 -3,120 Descending Jacksonville Center
05:24PM 29.3733 -81.1197 179° South 431 496 18,000 -1,920 Descending Jacksonville Center
05:25PM 29.2603 -81.1003 171° South 425 489 18,000  Level Jacksonville Center
05:26PM 29.1511 -81.0522 159° South 409 471 18,000  Level Jacksonville Center
05:28PM 28.9225 -80.9539 159° South 424 488 18,000  Level Miami Center
05:29PM 28.8153 -80.9025 157° South 419 482 18,000  Level Miami Center
05:30PM 28.7125 -80.8492 156° South 414 476 18,000  Level Miami Center
05:31PM 28.6056 -80.7981 157° South 414 476 18,000  Level Miami Center
05:32PM 28.5025 -80.7472 157° South 414 476 18,000  Level Miami Center
05:33PM 28.4100 -80.7014 156° South 414 476 18,000  Level Miami Center
05:34PM 28.2967 -80.6433 156° South 409 471 18,000  Level Miami Center
05:35PM 28.1936 -80.5928 157° South 409 471 18,000 -720 Level Miami Center
05:36PM 28.1031 -80.5475 156° South 409 471 16,600 -1,560 Descending Miami Center
05:37PM 28.0019 -80.4969 156° South 401 461 14,900 -1,800 Descending Miami Center
05:38PM 27.9072 -80.4517 157° South 387 445 13,000 -2,040 Descending Miami Center
05:39PM 27.8081 -80.4017 156° South 363 418 10,900 -1,680 Descending Miami Center
05:40PM 27.7297 -80.3642 157° South 332 382 9,700 -1,320 Descending Miami Center
05:41PM 27.6617 -80.3314 157° South 306 352 8,300 -1,560 Descending Miami Center
05:42PM 27.5811 -80.2917 156° South 289 333 6,600 -1,200 Descending Miami Center
05:43PM 27.5069 -80.2567 157° South 289 333 5,900 -660 Descending Miami Center
05:44PM 27.4347 -80.2217 157° South 289 333 5,300 -840 Descending Miami Center
05:45PM 27.3686 -80.1894 157° South 289 333 4,300 -720 Descending Miami Center
05:46PM 27.3067 -80.1572 155° Southeast 273 314 3,900 -1,080 Descending Miami Center
05:47PM 27.2403 -80.1342 163° South 227 261 2,200 -1,200 Descending Miami Center
05:48PM 27.1842 -80.1256 172° South 222 255 1,500 -360 Descending Miami Center
05:49PM 27.1564 -80.1600 228° Southwest 158 182 1,500 -480 Level Miami Center
05:50PM 27.1681 -80.1906 293° West 124 143 600 8,160 Descending Miami Center
05:51PM 27.1506 -80.2275 242° Southwest 124 143 18,000 8,700 Climbing Miami Center
05:52PM 27.1392 -80.2622 250° West 124 143 18,000  Level Miami Center